< < Back
Terminal Aerodrome Forecast


Current Version              Previous Versions:   1  2  3  4  5  6  7  8  9  

Terminal Aerodrome Forecast

356
FTUS42 KFFC 241546 AAB
TAFATL
TAF AMD
KATL 241546Z 2416/2518 15007KT P6SM VCSH SCT025 BKN040
      TEMPO 2417/2421 VRB10G20KT 5SM SHRA BKN030
     FM242100 13007KT P6SM SCT050 SCT100
     FM250100 11005KT P6SM FEW060 SCT150
     FM251500 09005KT P6SM SCT050=

Latest METAR

824
SAUS70 KWBC 241908
MTRATL
METAR KATL 241852Z COR 10014KT 8SM R09R/6000VP6000FT -RA FEW010CB BKN030
OVC050 23/22 A3025 RMK AO2 PK WND 06027/1816 RAB07 SLP234 VIS
LWR E-SE-S & NW-N SHRA CB E-SE-S & NW-N MOV S P0052
T02330222


USA.gov is the U.S. government's official web portal to all federal, state and local government web resources and services.